<?xml version="1.0" encoding="UTF-8" standalone="no" ?>
<gpx xmlns="http://www.topografix.com/GPX/1/1" xmlns:xsi="http://www.w3.org/2001/XMLSchema-instance" xsi:schemaLocation="http://www.topografix.com/GPX/1/1 http://www.topografix.com/GPX/1/1/gpx.xsd" version="1.1" creator="VisuGPX - https://www.visugpx.com">
  <metadata>
    <name>Vacances 2021</name>
  </metadata>
  <trk>
    <name><![CDATA[Journal actif: 2021-07-25 15:59]]></name>
    <trkseg>
      <trkpt lat="49.38677" lon="4.61149">
        <ele>180.38</ele>
        <time>2021-07-25T17:59:11Z</time>
      </trkpt>
      <trkpt lat="49.38683" lon="4.61123">
        <ele>181.35</ele>
        <time>2021-07-25T17:59:43Z</time>
      </trkpt>
      <trkpt lat="49.38703" lon="4.61022">
        <ele>181.35</ele>
        <time>2021-07-25T17:59:51Z</time>
      </trkpt>
      <trkpt lat="49.38741" lon="4.60832">
        <ele>177.5</ele>
        <time>2021-07-25T18:00:01Z</time>
      </trkpt>
      <trkpt lat="49.38804" lon="4.60517">
        <ele>169.33</ele>
        <time>2021-07-25T18:00:14Z</time>
      </trkpt>
      <trkpt lat="49.38917" lon="4.59953">
        <ele>169.81</ele>
        <time>2021-07-25T18:00:33Z</time>
      </trkpt>
      <trkpt lat="49.39025" lon="4.59416">
        <ele>180.38</ele>
        <time>2021-07-25T18:00:52Z</time>
      </trkpt>
      <trkpt lat="49.39136" lon="4.58871">
        <ele>178.46</ele>
        <time>2021-07-25T18:01:11Z</time>
      </trkpt>
      <trkpt lat="49.39198" lon="4.58581">
        <ele>174.14</ele>
        <time>2021-07-25T18:01:22Z</time>
      </trkpt>
      <trkpt lat="49.39233" lon="4.58461">
        <ele>173.17</ele>
        <time>2021-07-25T18:01:30Z</time>
      </trkpt>
      <trkpt lat="49.39237" lon="4.58452">
        <ele>173.17</ele>
        <time>2021-07-25T18:01:31Z</time>
      </trkpt>
      <trkpt lat="49.3924" lon="4.58442">
        <ele>173.66</ele>
        <time>2021-07-25T18:01:32Z</time>
      </trkpt>
      <trkpt lat="49.39248" lon="4.58439">
        <ele>173.66</ele>
        <time>2021-07-25T18:01:33Z</time>
      </trkpt>
      <trkpt lat="49.39255" lon="4.58436">
        <ele>173.66</ele>
        <time>2021-07-25T18:01:34Z</time>
      </trkpt>
      <trkpt lat="49.39277" lon="4.58422">
        <ele>173.17</ele>
        <time>2021-07-25T18:01:37Z</time>
      </trkpt>
      <trkpt lat="49.39284" lon="4.58413">
        <ele>172.21</ele>
        <time>2021-07-25T18:01:38Z</time>
      </trkpt>
      <trkpt lat="49.39292" lon="4.58404">
        <ele>171.25</ele>
        <time>2021-07-25T18:01:39Z</time>
      </trkpt>
      <trkpt lat="49.39297" lon="4.58391">
        <ele>170.29</ele>
        <time>2021-07-25T18:01:40Z</time>
      </trkpt>
      <trkpt lat="49.39301" lon="4.58377">
        <ele>170.29</ele>
        <time>2021-07-25T18:01:41Z</time>
      </trkpt>
      <trkpt lat="49.39303" lon="4.58364">
        <ele>169.33</ele>
        <time>2021-07-25T18:01:42Z</time>
      </trkpt>
      <trkpt lat="49.39304" lon="4.58349">
        <ele>169.33</ele>
        <time>2021-07-25T18:01:43Z</time>
      </trkpt>
      <trkpt lat="49.39305" lon="4.58336">
        <ele>168.85</ele>
        <time>2021-07-25T18:01:44Z</time>
      </trkpt>
      <trkpt lat="49.39313" lon="4.58325">
        <ele>168.37</ele>
        <time>2021-07-25T18:01:45Z</time>
      </trkpt>
      <trkpt lat="49.3932" lon="4.58316">
        <ele>168.85</ele>
        <time>2021-07-25T18:01:46Z</time>
      </trkpt>
      <trkpt lat="49.39326" lon="4.58307">
        <ele>168.85</ele>
        <time>2021-07-25T18:01:47Z</time>
      </trkpt>
      <trkpt lat="49.39334" lon="4.583">
        <ele>168.85</ele>
        <time>2021-07-25T18:01:48Z</time>
      </trkpt>
      <trkpt lat="49.39353" lon="4.58286">
        <ele>169.33</ele>
        <time>2021-07-25T18:01:49Z</time>
      </trkpt>
      <trkpt lat="49.3945" lon="4.58209">
        <ele>168.85</ele>
        <time>2021-07-25T18:01:58Z</time>
      </trkpt>
      <trkpt lat="49.39643" lon="4.58017">
        <ele>170.77</ele>
        <time>2021-07-25T18:02:11Z</time>
      </trkpt>
      <trkpt lat="49.3989" lon="4.57769">
        <ele>172.21</ele>
        <time>2021-07-25T18:02:26Z</time>
      </trkpt>
      <trkpt lat="49.40177" lon="4.57481">
        <ele>174.14</ele>
        <time>2021-07-25T18:02:42Z</time>
      </trkpt>
      <trkpt lat="49.40404" lon="4.57296">
        <ele>168.85</ele>
        <time>2021-07-25T18:02:53Z</time>
      </trkpt>
      <trkpt lat="49.4077" lon="4.57091">
        <ele>162.12</ele>
        <time>2021-07-25T18:03:09Z</time>
      </trkpt>
      <trkpt lat="49.41095" lon="4.56909">
        <ele>165.96</ele>
        <time>2021-07-25T18:03:24Z</time>
      </trkpt>
      <trkpt lat="49.41387" lon="4.56748">
        <ele>172.69</ele>
        <time>2021-07-25T18:03:39Z</time>
      </trkpt>
      <trkpt lat="49.41711" lon="4.56568">
        <ele>172.69</ele>
        <time>2021-07-25T18:03:56Z</time>
      </trkpt>
      <trkpt lat="49.42023" lon="4.56395">
        <ele>168.37</ele>
        <time>2021-07-25T18:04:12Z</time>
      </trkpt>
      <trkpt lat="49.42362" lon="4.56205">
        <ele>157.31</ele>
        <time>2021-07-25T18:04:28Z</time>
      </trkpt>
      <trkpt lat="49.42564" lon="4.5613">
        <ele>152.99</ele>
        <time>2021-07-25T18:04:37Z</time>
      </trkpt>
      <trkpt lat="49.42777" lon="4.5615">
        <ele>146.74</ele>
        <time>2021-07-25T18:04:46Z</time>
      </trkpt>
      <trkpt lat="49.42907" lon="4.56242">
        <ele>140.01</ele>
        <time>2021-07-25T18:04:52Z</time>
      </trkpt>
      <trkpt lat="49.43" lon="4.56389">
        <ele>136.16</ele>
        <time>2021-07-25T18:04:58Z</time>
      </trkpt>
      <trkpt lat="49.4308" lon="4.56635">
        <ele>130.4</ele>
        <time>2021-07-25T18:05:06Z</time>
      </trkpt>
      <trkpt lat="49.4318" lon="4.56895">
        <ele>123.19</ele>
        <time>2021-07-25T18:05:15Z</time>
      </trkpt>
      <trkpt lat="49.43329" lon="4.57124">
        <ele>115.5</ele>
        <time>2021-07-25T18:05:24Z</time>
      </trkpt>
      <trkpt lat="49.43462" lon="4.57305">
        <ele>111.65</ele>
        <time>2021-07-25T18:05:33Z</time>
      </trkpt>
      <trkpt lat="49.43564" lon="4.57395">
        <ele>108.29</ele>
        <time>2021-07-25T18:05:40Z</time>
      </trkpt>
      <trkpt lat="49.43698" lon="4.57436">
        <ele>107.81</ele>
        <time>2021-07-25T18:05:49Z</time>
      </trkpt>
    </trkseg>
  </trk>
</gpx>